sensor_id;sensor_type;location;lat;lon;timestamp;temperature;humidity
36134;DHT22;40492;43.524;-1.510;2022-07-30T00:02:02;19.80;99.90
36134;DHT22;40492;43.524;-1.510;2022-07-30T00:04:29;19.80;99.90
36134;DHT22;40492;43.524;-1.510;2022-07-30T00:06:55;19.80;99.90
36134;DHT22;40492;43.524;-1.510;2022-07-30T00:09:20;19.80;99.90
36134;DHT22;40492;43.524;-1.510;2022-07-30T00:11:46;19.80;99.90
36134;DHT22;40492;43.524;-1.510;2022-07-30T00:14:12;19.80;99.90
36134;DHT22;40492;43.524;-1.510;2022-07-30T00:16:38;19.80;99.90
36134;DHT22;40492;43.524;-1.510;2022-07-30T00:19:03;19.80;99.90
36134;DHT22;40492;43.524;-1.510;2022-07-30T00:21:29;19.80;99.90
36134;DHT22;40492;43.524;-1.510;2022-07-30T00:23:55;19.90;99.90
36134;DHT22;40492;43.524;-1.510;2022-07-30T00:26:21;19.90;99.90
36134;DHT22;40492;43.524;-1.510;2022-07-30T00:28:47;19.90;99.90
36134;DHT22;40492;43.524;-1.510;2022-07-30T00:31:12;19.90;99.90
36134;DHT22;40492;43.524;-1.510;2022-07-30T00:33:38;19.90;99.90
36134;DHT22;40492;43.524;-1.510;2022-07-30T00:36:04;20.00;99.90
36134;DHT22;40492;43.524;-1.510;2022-07-30T00:38:30;19.90;99.90
36134;DHT22;40492;43.524;-1.510;2022-07-30T00:40:55;19.90;99.90
36134;DHT22;40492;43.524;-1.510;2022-07-30T00:43:22;19.90;99.90
36134;DHT22;40492;43.524;-1.510;2022-07-30T00:45:48;20.00;99.90
36134;DHT22;40492;43.524;-1.510;2022-07-30T00:48:14;20.00;99.90
36134;DHT22;40492;43.524;-1.510;2022-07-30T00:50:40;20.00;99.90
36134;DHT22;40492;43.524;-1.510;2022-07-30T00:53:06;20.00;99.90
36134;DHT22;40492;43.524;-1.510;2022-07-30T00:55:32;20.10;99.90
36134;DHT22;40492;43.524;-1.510;2022-07-30T00:57:58;20.10;99.90
36134;DHT22;40492;43.524;-1.510;2022-07-30T01:00:24;20.10;99.90
36134;DHT22;40492;43.524;-1.510;2022-07-30T01:02:50;20.10;99.90
36134;DHT22;40492;43.524;-1.510;2022-07-30T01:05:16;20.00;99.90
36134;DHT22;40492;43.524;-1.510;2022-07-30T01:07:42;20.10;99.90
36134;DHT22;40492;43.524;-1.510;2022-07-30T01:10:08;20.00;99.90
36134;DHT22;40492;43.524;-1.510;2022-07-30T01:12:34;20.00;99.90
36134;DHT22;40492;43.524;-1.510;2022-07-30T01:15:00;20.10;99.90
36134;DHT22;40492;43.524;-1.510;2022-07-30T01:17:28;20.00;99.90
36134;DHT22;40492;43.524;-1.510;2022-07-30T01:19:55;20.00;99.90
36134;DHT22;40492;43.524;-1.510;2022-07-30T01:22:28;20.10;99.90
36134;DHT22;40492;43.524;-1.510;2022-07-30T01:27:22;20.10;99.90
36134;DHT22;40492;43.524;-1.510;2022-07-30T01:29:48;20.10;99.90
36134;DHT22;40492;43.524;-1.510;2022-07-30T01:32:15;20.10;99.90
36134;DHT22;40492;43.524;-1.510;2022-07-30T01:34:42;20.10;99.90
36134;DHT22;40492;43.524;-1.510;2022-07-30T01:37:09;20.10;99.90
36134;DHT22;40492;43.524;-1.510;2022-07-30T01:39:36;20.10;99.90
36134;DHT22;40492;43.524;-1.510;2022-07-30T01:42:02;20.10;99.90
36134;DHT22;40492;43.524;-1.510;2022-07-30T01:44:31;20.20;99.90
36134;DHT22;40492;43.524;-1.510;2022-07-30T01:46:58;20.10;99.90
36134;DHT22;40492;43.524;-1.510;2022-07-30T01:49:24;20.10;99.90
36134;DHT22;40492;43.524;-1.510;2022-07-30T01:51:51;20.10;99.90
36134;DHT22;40492;43.524;-1.510;2022-07-30T01:54:18;20.20;99.90
36134;DHT22;40492;43.524;-1.510;2022-07-30T01:56:45;20.20;99.90
36134;DHT22;40492;43.524;-1.510;2022-07-30T01:59:11;20.20;99.90
36134;DHT22;40492;43.524;-1.510;2022-07-30T02:01:38;20.20;99.90
36134;DHT22;40492;43.524;-1.510;2022-07-30T02:04:04;20.30;99.90
36134;DHT22;40492;43.524;-1.510;2022-07-30T02:06:36;20.30;99.90
36134;DHT22;40492;43.524;-1.510;2022-07-30T02:09:03;20.30;99.90
36134;DHT22;40492;43.524;-1.510;2022-07-30T02:11:31;20.30;99.90
36134;DHT22;40492;43.524;-1.510;2022-07-30T02:14:22;20.30;99.90
36134;DHT22;40492;43.524;-1.510;2022-07-30T02:16:50;20.30;99.90
36134;DHT22;40492;43.524;-1.510;2022-07-30T02:19:17;20.30;99.90
36134;DHT22;40492;43.524;-1.510;2022-07-30T02:21:48;20.40;99.90
36134;DHT22;40492;43.524;-1.510;2022-07-30T02:24:18;20.40;99.90
36134;DHT22;40492;43.524;-1.510;2022-07-30T02:26:46;20.40;99.90
36134;DHT22;40492;43.524;-1.510;2022-07-30T02:29:14;20.40;99.90
36134;DHT22;40492;43.524;-1.510;2022-07-30T02:31:41;20.40;99.90
36134;DHT22;40492;43.524;-1.510;2022-07-30T02:34:06;20.50;99.90
36134;DHT22;40492;43.524;-1.510;2022-07-30T02:36:33;20.50;99.90
36134;DHT22;40492;43.524;-1.510;2022-07-30T02:38:59;20.50;99.90
36134;DHT22;40492;43.524;-1.510;2022-07-30T02:41:27;20.50;99.90
36134;DHT22;40492;43.524;-1.510;2022-07-30T02:43:54;20.50;99.90
36134;DHT22;40492;43.524;-1.510;2022-07-30T02:46:20;20.50;99.90
36134;DHT22;40492;43.524;-1.510;2022-07-30T02:48:46;20.50;99.90
36134;DHT22;40492;43.524;-1.510;2022-07-30T02:51:16;20.50;99.90
36134;DHT22;40492;43.524;-1.510;2022-07-30T02:53:44;20.50;99.90
36134;DHT22;40492;43.524;-1.510;2022-07-30T02:56:10;20.50;99.90
36134;DHT22;40492;43.524;-1.510;2022-07-30T02:58:37;20.50;99.90
36134;DHT22;40492;43.524;-1.510;2022-07-30T03:01:03;20.50;99.90
36134;DHT22;40492;43.524;-1.510;2022-07-30T03:03:30;20.50;99.90
36134;DHT22;40492;43.524;-1.510;2022-07-30T03:05:56;20.50;99.90
36134;DHT22;40492;43.524;-1.510;2022-07-30T03:08:22;20.50;99.90
36134;DHT22;40492;43.524;-1.510;2022-07-30T03:10:49;20.50;99.90
36134;DHT22;40492;43.524;-1.510;2022-07-30T03:13:15;20.40;99.90
36134;DHT22;40492;43.524;-1.510;2022-07-30T03:15:44;20.50;99.90
36134;DHT22;40492;43.524;-1.510;2022-07-30T03:18:13;20.50;99.90
36134;DHT22;40492;43.524;-1.510;2022-07-30T03:20:39;20.40;99.90
36134;DHT22;40492;43.524;-1.510;2022-07-30T03:23:05;20.50;99.90
36134;DHT22;40492;43.524;-1.510;2022-07-30T03:25:32;20.40;99.90
36134;DHT22;40492;43.524;-1.510;2022-07-30T03:27:58;20.50;99.90
36134;DHT22;40492;43.524;-1.510;2022-07-30T03:30:25;20.50;99.90
36134;DHT22;40492;43.524;-1.510;2022-07-30T03:32:51;20.50;99.90
36134;DHT22;40492;43.524;-1.510;2022-07-30T03:35:17;20.50;99.90
36134;DHT22;40492;43.524;-1.510;2022-07-30T03:37:44;20.50;99.90
36134;DHT22;40492;43.524;-1.510;2022-07-30T03:40:12;20.40;99.90
36134;DHT22;40492;43.524;-1.510;2022-07-30T03:42:38;20.40;99.90
36134;DHT22;40492;43.524;-1.510;2022-07-30T03:45:05;20.40;99.90
36134;DHT22;40492;43.524;-1.510;2022-07-30T03:47:31;20.40;99.90
36134;DHT22;40492;43.524;-1.510;2022-07-30T03:49:57;20.40;99.90
36134;DHT22;40492;43.524;-1.510;2022-07-30T03:52:23;20.40;99.90
36134;DHT22;40492;43.524;-1.510;2022-07-30T03:54:50;20.40;99.90
36134;DHT22;40492;43.524;-1.510;2022-07-30T03:57:16;20.50;99.90
36134;DHT22;40492;43.524;-1.510;2022-07-30T03:59:42;20.40;99.90
36134;DHT22;40492;43.524;-1.510;2022-07-30T04:02:07;20.40;99.90
36134;DHT22;40492;43.524;-1.510;2022-07-30T04:04:34;20.40;99.90
36134;DHT22;40492;43.524;-1.510;2022-07-30T04:07:00;20.50;99.90
36134;DHT22;40492;43.524;-1.510;2022-07-30T04:09:25;20.50;99.90
36134;DHT22;40492;43.524;-1.510;2022-07-30T04:11:51;20.50;99.90
36134;DHT22;40492;43.524;-1.510;2022-07-30T04:14:17;20.50;99.90
36134;DHT22;40492;43.524;-1.510;2022-07-30T04:16:48;20.50;99.90
36134;DHT22;40492;43.524;-1.510;2022-07-30T04:19:22;20.50;99.90
36134;DHT22;40492;43.524;-1.510;2022-07-30T04:21:49;20.50;99.90
36134;DHT22;40492;43.524;-1.510;2022-07-30T04:24:17;20.50;99.90
36134;DHT22;40492;43.524;-1.510;2022-07-30T04:26:43;20.50;99.90
36134;DHT22;40492;43.524;-1.510;2022-07-30T04:29:09;20.50;99.90
36134;DHT22;40492;43.524;-1.510;2022-07-30T04:31:35;20.50;99.90
36134;DHT22;40492;43.524;-1.510;2022-07-30T04:34:02;20.50;99.90
36134;DHT22;40492;43.524;-1.510;2022-07-30T04:36:28;20.50;99.90
36134;DHT22;40492;43.524;-1.510;2022-07-30T04:38:54;20.60;99.90
36134;DHT22;40492;43.524;-1.510;2022-07-30T04:41:20;20.50;99.90
36134;DHT22;40492;43.524;-1.510;2022-07-30T04:43:46;20.50;99.90
36134;DHT22;40492;43.524;-1.510;2022-07-30T04:46:12;20.50;99.90
36134;DHT22;40492;43.524;-1.510;2022-07-30T04:48:38;20.50;99.90
36134;DHT22;40492;43.524;-1.510;2022-07-30T04:51:06;20.60;99.90
36134;DHT22;40492;43.524;-1.510;2022-07-30T04:53:34;20.60;99.90
36134;DHT22;40492;43.524;-1.510;2022-07-30T04:56:00;20.60;99.90
36134;DHT22;40492;43.524;-1.510;2022-07-30T04:58:27;20.70;99.90
36134;DHT22;40492;43.524;-1.510;2022-07-30T05:00:53;20.60;99.90
36134;DHT22;40492;43.524;-1.510;2022-07-30T05:03:19;20.70;99.90
36134;DHT22;40492;43.524;-1.510;2022-07-30T05:05:46;20.70;99.90
36134;DHT22;40492;43.524;-1.510;2022-07-30T05:08:12;20.70;99.90
36134;DHT22;40492;43.524;-1.510;2022-07-30T05:10:38;20.70;99.90
36134;DHT22;40492;43.524;-1.510;2022-07-30T05:13:09;20.70;99.90
36134;DHT22;40492;43.524;-1.510;2022-07-30T05:15:35;20.70;99.90
36134;DHT22;40492;43.524;-1.510;2022-07-30T05:18:01;20.70;99.90
36134;DHT22;40492;43.524;-1.510;2022-07-30T05:20:26;20.80;99.90
36134;DHT22;40492;43.524;-1.510;2022-07-30T05:22:52;20.80;99.90
36134;DHT22;40492;43.524;-1.510;2022-07-30T05:25:18;20.80;99.90
36134;DHT22;40492;43.524;-1.510;2022-07-30T05:27:44;20.90;99.90
36134;DHT22;40492;43.524;-1.510;2022-07-30T05:30:10;20.90;99.90
36134;DHT22;40492;43.524;-1.510;2022-07-30T05:32:36;20.90;99.90
36134;DHT22;40492;43.524;-1.510;2022-07-30T05:35:02;21.00;99.90
36134;DHT22;40492;43.524;-1.510;2022-07-30T05:37:27;21.00;99.90
36134;DHT22;40492;43.524;-1.510;2022-07-30T05:39:53;21.00;99.90
36134;DHT22;40492;43.524;-1.510;2022-07-30T05:42:19;21.00;99.90
36134;DHT22;40492;43.524;-1.510;2022-07-30T05:44:45;21.10;99.90
36134;DHT22;40492;43.524;-1.510;2022-07-30T05:47:11;21.10;99.90
36134;DHT22;40492;43.524;-1.510;2022-07-30T05:49:36;21.20;99.90
36134;DHT22;40492;43.524;-1.510;2022-07-30T05:52:02;21.20;99.90
36134;DHT22;40492;43.524;-1.510;2022-07-30T05:54:28;21.20;99.90
36134;DHT22;40492;43.524;-1.510;2022-07-30T05:56:54;21.30;99.90
36134;DHT22;40492;43.524;-1.510;2022-07-30T05:59:19;21.30;99.90
36134;DHT22;40492;43.524;-1.510;2022-07-30T06:01:46;21.30;99.90
36134;DHT22;40492;43.524;-1.510;2022-07-30T06:04:11;21.40;99.90
36134;DHT22;40492;43.524;-1.510;2022-07-30T06:06:37;21.40;99.90
36134;DHT22;40492;43.524;-1.510;2022-07-30T06:09:03;21.50;99.90
36134;DHT22;40492;43.524;-1.510;2022-07-30T06:11:29;21.50;99.90
36134;DHT22;40492;43.524;-1.510;2022-07-30T06:13:54;21.50;99.90
36134;DHT22;40492;43.524;-1.510;2022-07-30T06:16:20;21.60;99.90
36134;DHT22;40492;43.524;-1.510;2022-07-30T06:18:46;21.60;99.90
36134;DHT22;40492;43.524;-1.510;2022-07-30T06:21:12;21.60;99.90
36134;DHT22;40492;43.524;-1.510;2022-07-30T06:23:37;21.70;99.90
36134;DHT22;40492;43.524;-1.510;2022-07-30T06:26:03;21.70;99.90
36134;DHT22;40492;43.524;-1.510;2022-07-30T06:28:29;21.70;99.90
36134;DHT22;40492;43.524;-1.510;2022-07-30T06:30:55;21.80;99.90
36134;DHT22;40492;43.524;-1.510;2022-07-30T06:33:21;21.80;99.90
36134;DHT22;40492;43.524;-1.510;2022-07-30T06:35:47;21.80;99.90
36134;DHT22;40492;43.524;-1.510;2022-07-30T06:38:13;21.80;99.90
36134;DHT22;40492;43.524;-1.510;2022-07-30T06:40:39;21.90;99.90
36134;DHT22;40492;43.524;-1.510;2022-07-30T06:43:04;22.00;99.90
36134;DHT22;40492;43.524;-1.510;2022-07-30T06:45:30;22.10;99.90
36134;DHT22;40492;43.524;-1.510;2022-07-30T06:47:57;22.10;99.90
36134;DHT22;40492;43.524;-1.510;2022-07-30T06:50:23;22.20;99.90
36134;DHT22;40492;43.524;-1.510;2022-07-30T06:52:49;22.20;99.90
36134;DHT22;40492;43.524;-1.510;2022-07-30T06:55:14;22.20;99.90
36134;DHT22;40492;43.524;-1.510;2022-07-30T06:57:40;22.30;99.90
36134;DHT22;40492;43.524;-1.510;2022-07-30T07:00:06;22.40;99.90
36134;DHT22;40492;43.524;-1.510;2022-07-30T07:02:32;22.50;99.90
36134;DHT22;40492;43.524;-1.510;2022-07-30T07:04:58;22.60;99.90
36134;DHT22;40492;43.524;-1.510;2022-07-30T07:07:24;22.60;99.90
36134;DHT22;40492;43.524;-1.510;2022-07-30T07:09:49;22.80;99.90
36134;DHT22;40492;43.524;-1.510;2022-07-30T07:12:15;22.80;99.90
36134;DHT22;40492;43.524;-1.510;2022-07-30T07:14:41;23.00;99.90
36134;DHT22;40492;43.524;-1.510;2022-07-30T07:17:07;23.00;99.90
36134;DHT22;40492;43.524;-1.510;2022-07-30T07:19:33;23.10;99.90
36134;DHT22;40492;43.524;-1.510;2022-07-30T07:21:58;23.10;99.90
36134;DHT22;40492;43.524;-1.510;2022-07-30T07:24:24;23.20;99.90
36134;DHT22;40492;43.524;-1.510;2022-07-30T07:26:50;23.30;99.90
36134;DHT22;40492;43.524;-1.510;2022-07-30T07:29:16;23.40;99.90
36134;DHT22;40492;43.524;-1.510;2022-07-30T07:31:42;23.40;99.90
36134;DHT22;40492;43.524;-1.510;2022-07-30T07:34:07;23.40;99.90
36134;DHT22;40492;43.524;-1.510;2022-07-30T07:36:33;23.20;99.90
36134;DHT22;40492;43.524;-1.510;2022-07-30T07:39:00;23.10;99.90
36134;DHT22;40492;43.524;-1.510;2022-07-30T07:41:26;23.10;99.90
36134;DHT22;40492;43.524;-1.510;2022-07-30T07:43:52;23.00;99.90
36134;DHT22;40492;43.524;-1.510;2022-07-30T07:46:18;23.00;99.90
36134;DHT22;40492;43.524;-1.510;2022-07-30T07:48:44;23.00;99.90
36134;DHT22;40492;43.524;-1.510;2022-07-30T07:51:10;22.90;99.90
36134;DHT22;40492;43.524;-1.510;2022-07-30T07:53:35;22.80;99.90
36134;DHT22;40492;43.524;-1.510;2022-07-30T07:56:01;22.80;99.90
36134;DHT22;40492;43.524;-1.510;2022-07-30T07:58:27;22.90;99.90
36134;DHT22;40492;43.524;-1.510;2022-07-30T08:00:53;22.90;99.90
36134;DHT22;40492;43.524;-1.510;2022-07-30T08:03:19;23.00;99.90
36134;DHT22;40492;43.524;-1.510;2022-07-30T08:05:45;23.10;99.90
36134;DHT22;40492;43.524;-1.510;2022-07-30T08:08:11;23.20;99.90
36134;DHT22;40492;43.524;-1.510;2022-07-30T08:10:36;23.30;99.90
36134;DHT22;40492;43.524;-1.510;2022-07-30T08:13:02;23.30;99.90
36134;DHT22;40492;43.524;-1.510;2022-07-30T08:15:29;23.40;99.90
36134;DHT22;40492;43.524;-1.510;2022-07-30T08:17:55;23.50;99.90
36134;DHT22;40492;43.524;-1.510;2022-07-30T08:20:21;23.70;99.90
36134;DHT22;40492;43.524;-1.510;2022-07-30T08:22:49;24.00;99.90
36134;DHT22;40492;43.524;-1.510;2022-07-30T08:25:15;24.40;99.90
36134;DHT22;40492;43.524;-1.510;2022-07-30T08:27:43;25.00;99.90
36134;DHT22;40492;43.524;-1.510;2022-07-30T08:30:09;25.30;99.90
36134;DHT22;40492;43.524;-1.510;2022-07-30T08:32:35;25.50;99.90
36134;DHT22;40492;43.524;-1.510;2022-07-30T08:35:01;25.90;99.90
36134;DHT22;40492;43.524;-1.510;2022-07-30T08:37:27;26.10;99.90
36134;DHT22;40492;43.524;-1.510;2022-07-30T08:39:53;26.10;99.90
36134;DHT22;40492;43.524;-1.510;2022-07-30T08:42:18;26.10;99.90
36134;DHT22;40492;43.524;-1.510;2022-07-30T08:44:44;26.20;99.90
36134;DHT22;40492;43.524;-1.510;2022-07-30T08:47:11;26.10;99.90
36134;DHT22;40492;43.524;-1.510;2022-07-30T08:49:39;25.90;99.90
36134;DHT22;40492;43.524;-1.510;2022-07-30T08:52:05;25.70;99.90
36134;DHT22;40492;43.524;-1.510;2022-07-30T08:54:33;25.40;99.90
36134;DHT22;40492;43.524;-1.510;2022-07-30T08:56:59;25.40;99.90
36134;DHT22;40492;43.524;-1.510;2022-07-30T08:59:25;25.40;99.90
36134;DHT22;40492;43.524;-1.510;2022-07-30T09:01:51;25.40;99.90
36134;DHT22;40492;43.524;-1.510;2022-07-30T09:04:17;25.50;99.90
36134;DHT22;40492;43.524;-1.510;2022-07-30T09:06:43;25.80;99.90
36134;DHT22;40492;43.524;-1.510;2022-07-30T09:09:09;25.90;99.90
36134;DHT22;40492;43.524;-1.510;2022-07-30T09:11:34;25.70;99.90
36134;DHT22;40492;43.524;-1.510;2022-07-30T09:14:13;25.90;99.90
36134;DHT22;40492;43.524;-1.510;2022-07-30T09:16:40;26.20;99.90
36134;DHT22;40492;43.524;-1.510;2022-07-30T09:19:13;26.70;99.90
36134;DHT22;40492;43.524;-1.510;2022-07-30T09:21:39;26.90;99.90
36134;DHT22;40492;43.524;-1.510;2022-07-30T09:24:09;26.80;99.90
36134;DHT22;40492;43.524;-1.510;2022-07-30T09:29:36;27.10;99.90
36134;DHT22;40492;43.524;-1.510;2022-07-30T09:32:03;27.20;99.90
36134;DHT22;40492;43.524;-1.510;2022-07-30T09:34:30;27.30;99.90
36134;DHT22;40492;43.524;-1.510;2022-07-30T09:36:56;28.30;99.90
36134;DHT22;40492;43.524;-1.510;2022-07-30T09:39:29;29.80;99.90
36134;DHT22;40492;43.524;-1.510;2022-07-30T09:41:56;30.90;99.90
36134;DHT22;40492;43.524;-1.510;2022-07-30T09:44:26;30.80;99.90
36134;DHT22;40492;43.524;-1.510;2022-07-30T09:46:52;31.20;99.90
36134;DHT22;40492;43.524;-1.510;2022-07-30T09:51:43;33.50;99.90
36134;DHT22;40492;43.524;-1.510;2022-07-30T09:54:09;33.90;99.90
36134;DHT22;40492;43.524;-1.510;2022-07-30T09:56:35;34.50;99.90
36134;DHT22;40492;43.524;-1.510;2022-07-30T09:59:01;34.50;99.90
36134;DHT22;40492;43.524;-1.510;2022-07-30T10:01:26;34.80;99.90
36134;DHT22;40492;43.524;-1.510;2022-07-30T10:03:55;35.10;99.90
36134;DHT22;40492;43.524;-1.510;2022-07-30T10:06:31;35.90;99.90
36134;DHT22;40492;43.524;-1.510;2022-07-30T10:08:57;35.60;99.90
36134;DHT22;40492;43.524;-1.510;2022-07-30T10:11:23;36.50;99.90
36134;DHT22;40492;43.524;-1.510;2022-07-30T10:13:55;36.90;99.90
36134;DHT22;40492;43.524;-1.510;2022-07-30T10:16:21;37.50;99.90
36134;DHT22;40492;43.524;-1.510;2022-07-30T10:18:46;37.60;98.20
36134;DHT22;40492;43.524;-1.510;2022-07-30T10:21:12;37.60;97.10
36134;DHT22;40492;43.524;-1.510;2022-07-30T10:23:39;38.10;96.50
36134;DHT22;40492;43.524;-1.510;2022-07-30T10:26:05;38.50;94.30
36134;DHT22;40492;43.524;-1.510;2022-07-30T10:28:32;38.80;93.70
36134;DHT22;40492;43.524;-1.510;2022-07-30T10:30:58;39.00;92.00
36134;DHT22;40492;43.524;-1.510;2022-07-30T10:33:26;39.10;90.40
36134;DHT22;40492;43.524;-1.510;2022-07-30T10:35:52;39.10;90.00
36134;DHT22;40492;43.524;-1.510;2022-07-30T10:38:20;39.00;88.70
36134;DHT22;40492;43.524;-1.510;2022-07-30T10:40:51;38.60;88.00
36134;DHT22;40492;43.524;-1.510;2022-07-30T10:45:46;38.90;85.90
36134;DHT22;40492;43.524;-1.510;2022-07-30T10:48:14;39.00;85.30
36134;DHT22;40492;43.524;-1.510;2022-07-30T10:50:54;39.40;83.70
36134;DHT22;40492;43.524;-1.510;2022-07-30T10:56:14;39.30;81.80
36134;DHT22;40492;43.524;-1.510;2022-07-30T11:02:06;39.70;78.50
36134;DHT22;40492;43.524;-1.510;2022-07-30T11:06:44;40.50;76.00
36134;DHT22;40492;43.524;-1.510;2022-07-30T11:11:54;40.70;74.10
36134;DHT22;40492;43.524;-1.510;2022-07-30T11:14:20;41.50;73.00
36134;DHT22;40492;43.524;-1.510;2022-07-30T11:19:15;42.20;69.10
36134;DHT22;40492;43.524;-1.510;2022-07-30T11:21:43;42.80;68.40
36134;DHT22;40492;43.524;-1.510;2022-07-30T11:26:56;41.80;65.20
36134;DHT22;40492;43.524;-1.510;2022-07-30T11:29:35;41.10;64.80
36134;DHT22;40492;43.524;-1.510;2022-07-30T11:37:53;36.60;73.20
36134;DHT22;40492;43.524;-1.510;2022-07-30T11:40:19;36.50;74.50
36134;DHT22;40492;43.524;-1.510;2022-07-30T11:42:45;36.20;74.80
36134;DHT22;40492;43.524;-1.510;2022-07-30T11:47:43;35.50;77.50
36134;DHT22;40492;43.524;-1.510;2022-07-30T11:50:20;35.30;77.70
36134;DHT22;40492;43.524;-1.510;2022-07-30T11:52:52;35.00;78.70
36134;DHT22;40492;43.524;-1.510;2022-07-30T11:55:22;34.80;79.30
36134;DHT22;40492;43.524;-1.510;2022-07-30T11:57:48;34.50;80.10
36134;DHT22;40492;43.524;-1.510;2022-07-30T12:00:14;34.10;81.40
36134;DHT22;40492;43.524;-1.510;2022-07-30T12:02:43;33.80;82.10
36134;DHT22;40492;43.524;-1.510;2022-07-30T12:05:09;33.30;82.40
36134;DHT22;40492;43.524;-1.510;2022-07-30T12:07:35;33.10;83.50
36134;DHT22;40492;43.524;-1.510;2022-07-30T12:10:17;33.20;84.00
36134;DHT22;40492;43.524;-1.510;2022-07-30T12:12:43;33.20;84.00
36134;DHT22;40492;43.524;-1.510;2022-07-30T12:15:09;32.80;84.80
36134;DHT22;40492;43.524;-1.510;2022-07-30T12:17:42;32.90;85.40
36134;DHT22;40492;43.524;-1.510;2022-07-30T12:20:15;33.00;85.60
36134;DHT22;40492;43.524;-1.510;2022-07-30T12:22:42;32.70;85.80
36134;DHT22;40492;43.524;-1.510;2022-07-30T12:25:08;32.60;86.30
36134;DHT22;40492;43.524;-1.510;2022-07-30T12:27:35;32.40;87.10
36134;DHT22;40492;43.524;-1.510;2022-07-30T12:30:01;32.50;87.60
36134;DHT22;40492;43.524;-1.510;2022-07-30T12:32:27;32.30;87.70
36134;DHT22;40492;43.524;-1.510;2022-07-30T12:34:55;32.30;88.40
36134;DHT22;40492;43.524;-1.510;2022-07-30T12:37:21;32.40;89.00
36134;DHT22;40492;43.524;-1.510;2022-07-30T12:39:47;32.50;89.20
36134;DHT22;40492;43.524;-1.510;2022-07-30T12:42:19;32.60;88.40
36134;DHT22;40492;43.524;-1.510;2022-07-30T12:44:45;32.90;88.60
36134;DHT22;40492;43.524;-1.510;2022-07-30T12:47:20;33.20;88.40
36134;DHT22;40492;43.524;-1.510;2022-07-30T12:49:48;34.50;87.20
36134;DHT22;40492;43.524;-1.510;2022-07-30T12:52:20;36.00;82.90
36134;DHT22;40492;43.524;-1.510;2022-07-30T12:55:00;36.80;80.40
36134;DHT22;40492;43.524;-1.510;2022-07-30T12:57:27;37.00;79.90
36134;DHT22;40492;43.524;-1.510;2022-07-30T12:59:59;37.00;78.80
36134;DHT22;40492;43.524;-1.510;2022-07-30T13:02:30;36.90;79.20
36134;DHT22;40492;43.524;-1.510;2022-07-30T13:04:56;36.70;79.50
36134;DHT22;40492;43.524;-1.510;2022-07-30T13:07:22;36.70;78.80
36134;DHT22;40492;43.524;-1.510;2022-07-30T13:09:58;36.80;78.50
36134;DHT22;40492;43.524;-1.510;2022-07-30T13:12:30;36.90;78.00
36134;DHT22;40492;43.524;-1.510;2022-07-30T13:14:55;36.70;77.40
36134;DHT22;40492;43.524;-1.510;2022-07-30T13:17:21;36.10;78.50
36134;DHT22;40492;43.524;-1.510;2022-07-30T13:19:47;36.00;79.70
36134;DHT22;40492;43.524;-1.510;2022-07-30T13:22:15;36.10;79.60
36134;DHT22;40492;43.524;-1.510;2022-07-30T13:24:41;36.30;79.20
36134;DHT22;40492;43.524;-1.510;2022-07-30T13:27:08;36.10;79.50
36134;DHT22;40492;43.524;-1.510;2022-07-30T13:29:33;36.00;79.50
36134;DHT22;40492;43.524;-1.510;2022-07-30T13:31:59;35.70;79.90
36134;DHT22;40492;43.524;-1.510;2022-07-30T13:34:25;35.50;80.10
36134;DHT22;40492;43.524;-1.510;2022-07-30T13:36:51;35.30;80.40
36134;DHT22;40492;43.524;-1.510;2022-07-30T13:39:17;35.00;80.70
36134;DHT22;40492;43.524;-1.510;2022-07-30T13:41:42;34.90;81.30
36134;DHT22;40492;43.524;-1.510;2022-07-30T13:44:08;34.70;81.90
36134;DHT22;40492;43.524;-1.510;2022-07-30T13:46:34;34.60;82.40
36134;DHT22;40492;43.524;-1.510;2022-07-30T13:49:00;34.40;82.60
36134;DHT22;40492;43.524;-1.510;2022-07-30T13:51:26;33.90;83.10
36134;DHT22;40492;43.524;-1.510;2022-07-30T13:53:51;33.60;84.00
36134;DHT22;40492;43.524;-1.510;2022-07-30T13:56:17;33.30;84.60
36134;DHT22;40492;43.524;-1.510;2022-07-30T13:58:43;33.00;85.20
36134;DHT22;40492;43.524;-1.510;2022-07-30T14:01:09;33.00;85.90
36134;DHT22;40492;43.524;-1.510;2022-07-30T14:03:35;32.80;86.50
36134;DHT22;40492;43.524;-1.510;2022-07-30T14:06:01;32.90;87.10
36134;DHT22;40492;43.524;-1.510;2022-07-30T14:08:26;33.00;87.20
36134;DHT22;40492;43.524;-1.510;2022-07-30T14:10:53;32.90;87.40
36134;DHT22;40492;43.524;-1.510;2022-07-30T14:13:19;33.00;87.60
36134;DHT22;40492;43.524;-1.510;2022-07-30T14:15:45;33.00;87.30
36134;DHT22;40492;43.524;-1.510;2022-07-30T14:18:10;32.90;87.40
36134;DHT22;40492;43.524;-1.510;2022-07-30T14:20:36;33.00;87.90
36134;DHT22;40492;43.524;-1.510;2022-07-30T14:23:02;33.00;87.70
36134;DHT22;40492;43.524;-1.510;2022-07-30T14:25:28;33.00;87.70
36134;DHT22;40492;43.524;-1.510;2022-07-30T14:27:53;33.20;87.80
36134;DHT22;40492;43.524;-1.510;2022-07-30T14:30:20;33.20;87.50
36134;DHT22;40492;43.524;-1.510;2022-07-30T14:32:48;33.20;87.40
36134;DHT22;40492;43.524;-1.510;2022-07-30T14:35:13;33.20;87.50
36134;DHT22;40492;43.524;-1.510;2022-07-30T14:37:39;33.20;87.50
36134;DHT22;40492;43.524;-1.510;2022-07-30T14:40:06;33.10;87.80
36134;DHT22;40492;43.524;-1.510;2022-07-30T14:42:32;33.00;88.10
36134;DHT22;40492;43.524;-1.510;2022-07-30T14:45:00;33.10;87.90
36134;DHT22;40492;43.524;-1.510;2022-07-30T14:47:26;33.00;87.80
36134;DHT22;40492;43.524;-1.510;2022-07-30T14:49:52;33.10;87.90
36134;DHT22;40492;43.524;-1.510;2022-07-30T14:52:18;33.20;88.40
36134;DHT22;40492;43.524;-1.510;2022-07-30T14:54:44;33.10;87.70
36134;DHT22;40492;43.524;-1.510;2022-07-30T14:57:10;33.30;88.20
36134;DHT22;40492;43.524;-1.510;2022-07-30T14:59:35;33.30;87.90
36134;DHT22;40492;43.524;-1.510;2022-07-30T15:02:01;33.20;87.70
36134;DHT22;40492;43.524;-1.510;2022-07-30T15:04:27;33.10;88.20
36134;DHT22;40492;43.524;-1.510;2022-07-30T15:06:53;33.10;88.40
36134;DHT22;40492;43.524;-1.510;2022-07-30T15:09:19;33.10;88.10
36134;DHT22;40492;43.524;-1.510;2022-07-30T15:11:44;33.00;88.30
36134;DHT22;40492;43.524;-1.510;2022-07-30T15:14:10;33.00;88.80
36134;DHT22;40492;43.524;-1.510;2022-07-30T15:16:39;32.80;89.00
36134;DHT22;40492;43.524;-1.510;2022-07-30T15:19:04;32.90;89.50
36134;DHT22;40492;43.524;-1.510;2022-07-30T15:21:30;33.00;89.60
36134;DHT22;40492;43.524;-1.510;2022-07-30T15:23:56;32.90;89.50
36134;DHT22;40492;43.524;-1.510;2022-07-30T15:26:22;32.90;89.20
36134;DHT22;40492;43.524;-1.510;2022-07-30T15:28:48;33.00;89.80
36134;DHT22;40492;43.524;-1.510;2022-07-30T15:31:13;32.80;88.90
36134;DHT22;40492;43.524;-1.510;2022-07-30T15:33:39;32.90;89.20
36134;DHT22;40492;43.524;-1.510;2022-07-30T15:36:09;32.80;89.30
36134;DHT22;40492;43.524;-1.510;2022-07-30T15:38:35;32.70;89.70
36134;DHT22;40492;43.524;-1.510;2022-07-30T15:41:01;32.60;89.70
36134;DHT22;40492;43.524;-1.510;2022-07-30T15:43:27;32.50;89.90
36134;DHT22;40492;43.524;-1.510;2022-07-30T15:45:53;32.40;90.40
36134;DHT22;40492;43.524;-1.510;2022-07-30T15:48:18;32.60;90.40